sensor_id;sensor_type;location;lat;lon;timestamp;temperature;humidity
15158;DHT22;7679;48.796;9.056;2022-09-17T00:02:18;25.50;52.10
15158;DHT22;7679;48.796;9.056;2022-09-17T00:12:45;25.40;52.00
15158;DHT22;7679;48.796;9.056;2022-09-17T00:23:12;25.40;52.00
15158;DHT22;7679;48.796;9.056;2022-09-17T00:33:37;25.40;52.00
15158;DHT22;7679;48.796;9.056;2022-09-17T00:55:03;25.40;52.00
15158;DHT22;7679;48.796;9.056;2022-09-17T01:05:35;25.40;52.00
15158;DHT22;7679;48.796;9.056;2022-09-17T01:16:11;25.40;52.00
15158;DHT22;7679;48.796;9.056;2022-09-17T01:37:55;25.40;52.00
15158;DHT22;7679;48.796;9.056;2022-09-17T01:48:25;25.30;52.00
15158;DHT22;7679;48.796;9.056;2022-09-17T01:58:59;25.30;52.00
15158;DHT22;7679;48.796;9.056;2022-09-17T02:09:29;25.30;52.00
15158;DHT22;7679;48.796;9.056;2022-09-17T02:19:56;25.30;51.90
15158;DHT22;7679;48.796;9.056;2022-09-17T02:30:20;25.30;51.90
15158;DHT22;7679;48.796;9.056;2022-09-17T02:40:49;25.30;51.90
15158;DHT22;7679;48.796;9.056;2022-09-17T02:51:22;25.30;51.90
15158;DHT22;7679;48.796;9.056;2022-09-17T03:01:52;25.30;51.90
15158;DHT22;7679;48.796;9.056;2022-09-17T03:12:19;25.30;51.90
15158;DHT22;7679;48.796;9.056;2022-09-17T03:22:50;25.30;51.90
15158;DHT22;7679;48.796;9.056;2022-09-17T03:33:14;25.30;51.90
15158;DHT22;7679;48.796;9.056;2022-09-17T03:43:40;25.30;51.90
15158;DHT22;7679;48.796;9.056;2022-09-17T03:54:04;25.30;51.80
15158;DHT22;7679;48.796;9.056;2022-09-17T04:04:30;25.30;51.90
15158;DHT22;7679;48.796;9.056;2022-09-17T04:14:54;25.30;51.90
15158;DHT22;7679;48.796;9.056;2022-09-17T04:25:20;25.30;51.80
15158;DHT22;7679;48.796;9.056;2022-09-17T04:35:44;25.30;51.80
15158;DHT22;7679;48.796;9.056;2022-09-17T04:46:10;25.30;51.80
15158;DHT22;7679;48.796;9.056;2022-09-17T04:56:36;25.30;51.80
15158;DHT22;7679;48.796;9.056;2022-09-17T05:07:03;25.30;51.70
15158;DHT22;7679;48.796;9.056;2022-09-17T05:17:26;25.30;51.70
15158;DHT22;7679;48.796;9.056;2022-09-17T05:27:53;25.30;51.70
15158;DHT22;7679;48.796;9.056;2022-09-17T05:38:17;25.30;51.70
15158;DHT22;7679;48.796;9.056;2022-09-17T05:48:43;25.30;51.70
15158;DHT22;7679;48.796;9.056;2022-09-17T05:59:07;25.30;51.70
15158;DHT22;7679;48.796;9.056;2022-09-17T06:09:33;25.30;51.60
15158;DHT22;7679;48.796;9.056;2022-09-17T06:19:57;25.30;51.60
15158;DHT22;7679;48.796;9.056;2022-09-17T06:30:23;25.30;51.70
15158;DHT22;7679;48.796;9.056;2022-09-17T06:40:49;25.30;51.60
15158;DHT22;7679;48.796;9.056;2022-09-17T06:51:15;25.20;51.60
15158;DHT22;7679;48.796;9.056;2022-09-17T07:01:39;25.20;51.60
15158;DHT22;7679;48.796;9.056;2022-09-17T07:12:08;25.20;51.60
15158;DHT22;7679;48.796;9.056;2022-09-17T07:22:32;25.20;51.60
15158;DHT22;7679;48.796;9.056;2022-09-17T07:33:00;25.20;51.50
15158;DHT22;7679;48.796;9.056;2022-09-17T07:43:24;25.20;51.50
15158;DHT22;7679;48.796;9.056;2022-09-17T07:53:53;25.20;51.60
15158;DHT22;7679;48.796;9.056;2022-09-17T08:04:17;25.20;51.50
15158;DHT22;7679;48.796;9.056;2022-09-17T08:14:43;25.20;51.50
15158;DHT22;7679;48.796;9.056;2022-09-17T08:25:08;25.20;51.60
15158;DHT22;7679;48.796;9.056;2022-09-17T08:35:34;25.20;51.60
15158;DHT22;7679;48.796;9.056;2022-09-17T08:45:59;25.20;51.50
15158;DHT22;7679;48.796;9.056;2022-09-17T08:56:30;25.20;51.50
15158;DHT22;7679;48.796;9.056;2022-09-17T09:07:00;25.20;51.50
15158;DHT22;7679;48.796;9.056;2022-09-17T09:17:31;25.20;51.60
15158;DHT22;7679;48.796;9.056;2022-09-17T09:28:05;25.20;51.60
15158;DHT22;7679;48.796;9.056;2022-09-17T09:38:35;25.20;51.60
15158;DHT22;7679;48.796;9.056;2022-09-17T09:49:09;25.20;51.60
15158;DHT22;7679;48.796;9.056;2022-09-17T09:59:39;25.20;51.60
15158;DHT22;7679;48.796;9.056;2022-09-17T10:10:08;25.20;51.60
15158;DHT22;7679;48.796;9.056;2022-09-17T10:20:35;25.20;51.60
15158;DHT22;7679;48.796;9.056;2022-09-17T10:31:00;25.20;51.60
15158;DHT22;7679;48.796;9.056;2022-09-17T10:41:30;25.20;51.70
15158;DHT22;7679;48.796;9.056;2022-09-17T10:52:07;25.20;51.70
15158;DHT22;7679;48.796;9.056;2022-09-17T11:13:36;25.20;51.70
15158;DHT22;7679;48.796;9.056;2022-09-17T11:24:37;25.20;52.30
15158;DHT22;7679;48.796;9.056;2022-09-17T11:35:13;25.20;51.70
15158;DHT22;7679;48.796;9.056;2022-09-17T11:45:43;25.20;51.80
15158;DHT22;7679;48.796;9.056;2022-09-17T11:56:19;25.20;51.80
15158;DHT22;7679;48.796;9.056;2022-09-17T12:06:48;25.20;51.80
15158;DHT22;7679;48.796;9.056;2022-09-17T12:17:20;25.20;51.80
15158;DHT22;7679;48.796;9.056;2022-09-17T12:27:50;25.20;51.90
15158;DHT22;7679;48.796;9.056;2022-09-17T12:38:30;25.20;51.80
15158;DHT22;7679;48.796;9.056;2022-09-17T12:49:13;25.20;51.90
15158;DHT22;7679;48.796;9.056;2022-09-17T12:59:47;25.20;51.80
15158;DHT22;7679;48.796;9.056;2022-09-17T13:10:26;25.20;51.80
15158;DHT22;7679;48.796;9.056;2022-09-17T13:21:02;25.20;51.80
15158;DHT22;7679;48.796;9.056;2022-09-17T13:31:46;25.10;51.70
15158;DHT22;7679;48.796;9.056;2022-09-17T13:42:18;25.10;51.70
15158;DHT22;7679;48.796;9.056;2022-09-17T13:52:48;25.10;51.70
15158;DHT22;7679;48.796;9.056;2022-09-17T14:14:45;25.10;51.80
15158;DHT22;7679;48.796;9.056;2022-09-17T14:25:15;25.10;51.70
15158;DHT22;7679;48.796;9.056;2022-09-17T14:35:46;25.10;51.70
15158;DHT22;7679;48.796;9.056;2022-09-17T14:46:17;25.10;51.90
15158;DHT22;7679;48.796;9.056;2022-09-17T14:56:54;25.10;51.90
15158;DHT22;7679;48.796;9.056;2022-09-17T15:07:20;25.10;51.90
15158;DHT22;7679;48.796;9.056;2022-09-17T15:17:47;25.10;51.90
15158;DHT22;7679;48.796;9.056;2022-09-17T15:28:20;25.10;52.00
15158;DHT22;7679;48.796;9.056;2022-09-17T15:38:51;25.10;52.10
15158;DHT22;7679;48.796;9.056;2022-09-17T15:49:27;25.10;52.10
15158;DHT22;7679;48.796;9.056;2022-09-17T15:59:54;25.20;52.20
15158;DHT22;7679;48.796;9.056;2022-09-17T16:10:19;25.20;52.70
15158;DHT22;7679;48.796;9.056;2022-09-17T16:20:45;25.10;52.70
15158;DHT22;7679;48.796;9.056;2022-09-17T16:31:12;25.10;52.60
15158;DHT22;7679;48.796;9.056;2022-09-17T16:41:39;25.10;52.50
15158;DHT22;7679;48.796;9.056;2022-09-17T16:52:02;25.10;52.50
15158;DHT22;7679;48.796;9.056;2022-09-17T17:02:29;25.10;52.40
15158;DHT22;7679;48.796;9.056;2022-09-17T17:12:52;25.10;52.40
15158;DHT22;7679;48.796;9.056;2022-09-17T17:23:19;25.10;52.40
15158;DHT22;7679;48.796;9.056;2022-09-17T17:33:42;25.10;52.40
15158;DHT22;7679;48.796;9.056;2022-09-17T17:44:09;25.10;52.30
15158;DHT22;7679;48.796;9.056;2022-09-17T17:54:33;25.10;52.30
15158;DHT22;7679;48.796;9.056;2022-09-17T18:05:00;25.10;52.30
15158;DHT22;7679;48.796;9.056;2022-09-17T18:15:23;25.00;52.20
15158;DHT22;7679;48.796;9.056;2022-09-17T18:25:57;25.10;52.20
15158;DHT22;7679;48.796;9.056;2022-09-17T18:36:21;25.10;52.20
